Fulmar — WDD3992 — position and weather

sailwx.info

Track history (hours):
 
Tides and Currents Weather Stations Pressure Air Temp Water Temp Dewpoint Dewpoint Depression Visibility Wind Speed Wind Dir Waves Ship Positions

Oceanographic research ship Fulmar (United States)

Owner: NOAA R/V Fulmar, Monterey, CA. More information available from US FCC via Universal Licensing System.

Last reported at 2019-Jun-06 17:33 UTC. Time now 2019-Jun-19 20:50 UTC.
Position N 37°13' W 122°28'.
Warning: this ship's position is 13 days out of date.

Length 20 m; draft 2 m.

Type: Ship. MMSI: 367139040.

Date/timePositionNaut miles runAvg speedWind from/ knotsBaromVisibWave heightAir tempDewpointWater temp
2019-Jun-06 17:33N 37°13' W 122°28'115.7
2019-Jun-06 17:30N 37°14' W 122°28'816.0
2019-Jun-06 17:00N 37°22' W 122°31'816.0
2019-Jun-06 16:30N 37°30' W 122°33'612.4
2019-Jun-06 16:00N 37°36' W 122°34'611.7
2019-Jun-06 15:30N 37°42' W 122°34'612.6
2019-Jun-06 15:01N 37°48' W 122°33'5 9.9
2019-Jun-06 14:30N 37°52' W 122°29'0 0.1
2019-Jun-06 14:00N 37°52' W 122°30'  
2019-Jun-02 01:44N 37°52' W 122°30'0 0.0
2019-Jun-02 01:30N 37°52' W 122°30'0 0.1
2019-Jun-02 01:00N 37°52' W 122°30'3 6.0
2019-Jun-02 00:31N 37°49' W 122°29'713.7
2019-Jun-02 00:01N 37°44' W 122°35'611.5
2019-Jun-01 23:30N 37°39' W 122°39'510.3
2019-Jun-01 23:00N 37°39' W 122°45'1210.2
2019-Jun-01 21:52N 37°39' W 123°00'7 9.5
2019-Jun-01 21:10N 37°39' W 123°08'414.8
2019-Jun-01 20:56N 37°41' W 123°12'9 3.6
2019-Jun-01 18:30N 37°49' W 123°07'5 9.6
2019-Jun-01 18:00N 37°49' W 123°01'5 9.8
2019-Jun-01 17:30N 37°49' W 122°54'510.6
2019-Jun-01 17:00N 37°49' W 122°48'613.2
2019-Jun-01 16:30N 37°49' W 122°39'714.6
2019-Jun-01 16:00N 37°49' W 122°30'4 7.8
2019-Jun-01 15:31N 37°49' W 122°25'0 0.0
2019-Jun-01 15:00N 37°49' W 122°25'4 8.6
2019-Jun-01 14:31N 37°52' W 122°29'1 0.0
2019-Jun-01 02:59N 37°52' W 122°30'0 0.0
2019-Jun-01 02:30N 37°52' W 122°30'3 5.5
2019-Jun-01 02:00N 37°49' W 122°29'714.5
2019-Jun-01 01:30N 37°50' W 122°38'713.7
2019-Jun-01 01:00N 37°51' W 122°47'713.3
2019-Jun-01 00:30N 37°52' W 122°55'713.1
2019-Jun-01 00:00N 37°53' W 123°04'2 3.8
2019-May-31 23:30N 37°54' W 123°06'4 8.6
2019-May-31 23:00N 37°53' W 123°11'5 5.3
2019-May-31 22:05N 37°53' W 123°17'0 1.2
2019-May-31 21:58N 37°53' W 123°17'4 5.7
2019-May-31 21:17N 37°53' W 123°22'1 2.3
2019-May-31 21:00N 37°53' W 123°23'3 2.1
2019-May-31 19:30N 37°53' W 123°27'16 6.5
2019-May-31 17:03N 37°54' W 123°07'110.5
2019-May-31 16:59N 37°54' W 123°06'611.6
2019-May-31 16:30N 37°54' W 122°59'1114.2
2019-May-31 15:43N 37°50' W 122°45'313.6
2019-May-31 15:30N 37°50' W 122°42'714.6
2019-May-31 15:00N 37°49' W 122°33'4 8.0
2019-May-31 14:31N 37°52' W 122°29'1 1.4
2019-May-31 14:00N 37°52' W 122°30'0 0.0
2019-May-31 13:31N 37°52' W 122°30'0 0.0
2019-May-31 02:21N 37°52' W 122°30'2 5.2
2019-May-31 02:01N 37°50' W 122°28'612.7
2019-May-31 01:30N 37°44' W 122°31'4 8.8
2019-May-31 01:00N 37°44' W 122°37'5 9.8
2019-May-31 00:31N 37°45' W 122°43'2 4.1
2019-May-30 23:58N 37°44' W 122°45'710.0
2019-May-30 23:17N 37°44' W 122°54'0 0.5
2019-May-30 22:58N 37°44' W 122°54'6 7.9
2019-May-30 22:16N 37°44' W 123°01'1 5.8
2019-May-30 22:00N 37°44' W 123°03'1 0.3
2019-May-30 18:15N 37°45' W 123°03'711.4
2019-May-30 17:41N 37°45' W 122°55'410.3
2019-May-30 17:16N 37°46' W 122°50'310.3
2019-May-30 17:00N 37°46' W 122°46'611.7
2019-May-30 16:30N 37°47' W 122°39'612.5
2019-May-30 16:00N 37°48' W 122°32'4 8.1
2019-May-30 15:30N 37°52' W 122°29'0 1.0
2019-May-30 15:00N 37°52' W 122°30'0 0.0
2019-May-30 14:30N 37°52' W 122°30'0 0.0
2019-May-29 22:43N 37°52' W 122°30'0 0.0
2019-May-29 22:30N 37°52' W 122°30'0 0.9
2019-May-29 22:00N 37°52' W 122°29'4 8.8
2019-May-29 21:30N 37°49' W 122°25'0 0.0
2019-May-29 21:00N 37°49' W 122°25'3 6.5
2019-May-29 20:31N 37°51' W 122°28'2 0.1
2019-May-28 23:37N 37°52' W 122°30'0 0.1
2019-May-28 23:30N 37°52' W 122°30'3 5.4
2019-May-28 23:00N 37°49' W 122°30'817.0
2019-May-28 22:31N 37°51' W 122°40'917.5
2019-May-28 22:00N 37°53' W 122°51'714.2
2019-May-28 21:30N 37°54' W 122°60'611.0
2019-May-28 21:00N 37°54' W 123°07'8 9.4
2019-May-28 20:07N 37°53' W 123°17'7 5.0
2019-May-28 18:40N 37°53' W 123°27'1 0.7
2019-May-28 17:28N 37°54' W 123°26'8 9.5
2019-May-28 16:38N 38°01' W 123°21'110.9
2019-May-28 16:30N 38°02' W 123°20'710.9
2019-May-28 15:54N 38°07' W 123°14'512.9
2019-May-28 15:30N 38°11' W 123°10'611.8
2019-May-28 15:00N 38°15' W 123°06'4 8.6
2019-May-28 14:30N 38°19' W 123°03'1 1.6
2019-May-28 14:00N 38°20' W 123°03'0 0.0
2019-May-28 02:27N 38°20' W 123°03'0 0.9
2019-May-28 02:01N 38°19' W 123°03'5 9.0
2019-May-28 01:31N 38°15' W 123°01'510.1
2019-May-28 01:01N 38°10' W 123°00'510.3
2019-May-28 00:30N 38°05' W 122°60'2 3.4
2019-May-28 00:01N 38°04' W 123°01'510.3
2019-May-27 23:30N 38°03' W 123°07'3 5.4
2019-May-27 23:00N 38°03' W 123°11'1 2.8
2019-May-27 22:30N 38°03' W 123°13'3 6.4
2019-May-27 22:00N 38°03' W 123°17'3 6.8
2019-May-27 21:30N 38°03' W 123°21'1 2.8
2019-May-27 21:00N 38°03' W 123°23'4 8.6
2019-May-27 20:30N 38°03' W 123°28'1 2.1
2019-May-27 20:00N 38°03' W 123°30'3 6.6
2019-May-27 19:31N 38°03' W 123°34'0 0.6
2019-May-27 19:00N 38°02' W 123°33'1 1.7
2019-May-27 18:30N 38°03' W 123°32'1 2.0
2019-May-27 18:00N 38°03' W 123°31'  
Track history (hours):
 
Tides and Currents Weather Stations Pressure Air Temp Water Temp Dewpoint Dewpoint Depression Visibility Wind Speed Wind Dir Waves Ship Positions

Oceanographic research ship Fulmar (United States)

Owner: NOAA R/V Fulmar, Monterey, CA. More information available from US FCC via Universal Licensing System.

Last reported at 2019-Jun-06 17:33 UTC. Time now 2019-Jun-19 20:50 UTC.
Position N 37°13' W 122°28'.
Warning: this ship's position is 13 days out of date.

Length 20 m; draft 2 m.

Type: Ship. MMSI: 367139040.

Date/timePositionNaut miles runAvg speedWind from/ knotsBaromVisibWave heightAir tempDewpointWater temp
2019-Jun-06 17:33N 37°13' W 122°28'115.7
2019-Jun-06 17:30N 37°14' W 122°28'816.0
2019-Jun-06 17:00N 37°22' W 122°31'816.0
2019-Jun-06 16:30N 37°30' W 122°33'612.4
2019-Jun-06 16:00N 37°36' W 122°34'611.7
2019-Jun-06 15:30N 37°42' W 122°34'612.6
2019-Jun-06 15:01N 37°48' W 122°33'5 9.9
2019-Jun-06 14:30N 37°52' W 122°29'0 0.1
2019-Jun-06 14:00N 37°52' W 122°30'  
2019-Jun-02 01:44N 37°52' W 122°30'0 0.0
2019-Jun-02 01:30N 37°52' W 122°30'0 0.1
2019-Jun-02 01:00N 37°52' W 122°30'3 6.0
2019-Jun-02 00:31N 37°49' W 122°29'713.7
2019-Jun-02 00:01N 37°44' W 122°35'611.5
2019-Jun-01 23:30N 37°39' W 122°39'510.3
2019-Jun-01 23:00N 37°39' W 122°45'1210.2
2019-Jun-01 21:52N 37°39' W 123°00'7 9.5
2019-Jun-01 21:10N 37°39' W 123°08'414.8
2019-Jun-01 20:56N 37°41' W 123°12'9 3.6
2019-Jun-01 18:30N 37°49' W 123°07'5 9.6
2019-Jun-01 18:00N 37°49' W 123°01'5 9.8
2019-Jun-01 17:30N 37°49' W 122°54'510.6
2019-Jun-01 17:00N 37°49' W 122°48'613.2
2019-Jun-01 16:30N 37°49' W 122°39'714.6
2019-Jun-01 16:00N 37°49' W 122°30'4 7.8
2019-Jun-01 15:31N 37°49' W 122°25'0 0.0
2019-Jun-01 15:00N 37°49' W 122°25'4 8.6
2019-Jun-01 14:31N 37°52' W 122°29'1 0.0
2019-Jun-01 02:59N 37°52' W 122°30'0 0.0
2019-Jun-01 02:30N 37°52' W 122°30'3 5.5
2019-Jun-01 02:00N 37°49' W 122°29'714.5
2019-Jun-01 01:30N 37°50' W 122°38'713.7
2019-Jun-01 01:00N 37°51' W 122°47'713.3
2019-Jun-01 00:30N 37°52' W 122°55'713.1
2019-Jun-01 00:00N 37°53' W 123°04'2 3.8
2019-May-31 23:30N 37°54' W 123°06'4 8.6
2019-May-31 23:00N 37°53' W 123°11'5 5.3
2019-May-31 22:05N 37°53' W 123°17'0 1.2
2019-May-31 21:58N 37°53' W 123°17'4 5.7
2019-May-31 21:17N 37°53' W 123°22'1 2.3
2019-May-31 21:00N 37°53' W 123°23'3 2.1
2019-May-31 19:30N 37°53' W 123°27'16 6.5
2019-May-31 17:03N 37°54' W 123°07'110.5
2019-May-31 16:59N 37°54' W 123°06'611.6
2019-May-31 16:30N 37°54' W 122°59'1114.2
2019-May-31 15:43N 37°50' W 122°45'313.6
2019-May-31 15:30N 37°50' W 122°42'714.6
2019-May-31 15:00N 37°49' W 122°33'4 8.0
2019-May-31 14:31N 37°52' W 122°29'1 1.4
2019-May-31 14:00N 37°52' W 122°30'0 0.0
2019-May-31 13:31N 37°52' W 122°30'0 0.0
2019-May-31 02:21N 37°52' W 122°30'2 5.2
2019-May-31 02:01N 37°50' W 122°28'612.7
2019-May-31 01:30N 37°44' W 122°31'4 8.8
2019-May-31 01:00N 37°44' W 122°37'5 9.8
2019-May-31 00:31N 37°45' W 122°43'2 4.1
2019-May-30 23:58N 37°44' W 122°45'710.0
2019-May-30 23:17N 37°44' W 122°54'0 0.5
2019-May-30 22:58N 37°44' W 122°54'6 7.9
2019-May-30 22:16N 37°44' W 123°01'1 5.8
2019-May-30 22:00N 37°44' W 123°03'1 0.3
2019-May-30 18:15N 37°45' W 123°03'711.4
2019-May-30 17:41N 37°45' W 122°55'410.3
2019-May-30 17:16N 37°46' W 122°50'310.3
2019-May-30 17:00N 37°46' W 122°46'611.7
2019-May-30 16:30N 37°47' W 122°39'612.5
2019-May-30 16:00N 37°48' W 122°32'4 8.1
2019-May-30 15:30N 37°52' W 122°29'0 1.0
2019-May-30 15:00N 37°52' W 122°30'0 0.0
2019-May-30 14:30N 37°52' W 122°30'0 0.0
2019-May-29 22:43N 37°52' W 122°30'0 0.0
2019-May-29 22:30N 37°52' W 122°30'0 0.9
2019-May-29 22:00N 37°52' W 122°29'4 8.8
2019-May-29 21:30N 37°49' W 122°25'0 0.0
2019-May-29 21:00N 37°49' W 122°25'3 6.5
2019-May-29 20:31N 37°51' W 122°28'2 0.1
2019-May-28 23:37N 37°52' W 122°30'0 0.1
2019-May-28 23:30N 37°52' W 122°30'3 5.4
2019-May-28 23:00N 37°49' W 122°30'817.0
2019-May-28 22:31N 37°51' W 122°40'917.5
2019-May-28 22:00N 37°53' W 122°51'714.2
2019-May-28 21:30N 37°54' W 122°60'611.0
2019-May-28 21:00N 37°54' W 123°07'8 9.4
2019-May-28 20:07N 37°53' W 123°17'7 5.0
2019-May-28 18:40N 37°53' W 123°27'1 0.7
2019-May-28 17:28N 37°54' W 123°26'8 9.5
2019-May-28 16:38N 38°01' W 123°21'110.9
2019-May-28 16:30N 38°02' W 123°20'710.9
2019-May-28 15:54N 38°07' W 123°14'512.9
2019-May-28 15:30N 38°11' W 123°10'611.8
2019-May-28 15:00N 38°15' W 123°06'4 8.6
2019-May-28 14:30N 38°19' W 123°03'1 1.6
2019-May-28 14:00N 38°20' W 123°03'0 0.0
2019-May-28 02:27N 38°20' W 123°03'0 0.9
2019-May-28 02:01N 38°19' W 123°03'5 9.0
2019-May-28 01:31N 38°15' W 123°01'510.1
2019-May-28 01:01N 38°10' W 123°00'510.3
2019-May-28 00:30N 38°05' W 122°60'2 3.4
2019-May-28 00:01N 38°04' W 123°01'510.3
2019-May-27 23:30N 38°03' W 123°07'3 5.4
2019-May-27 23:00N 38°03' W 123°11'1 2.8
2019-May-27 22:30N 38°03' W 123°13'3 6.4
2019-May-27 22:00N 38°03' W 123°17'3 6.8
2019-May-27 21:30N 38°03' W 123°21'1 2.8
2019-May-27 21:00N 38°03' W 123°23'4 8.6
2019-May-27 20:30N 38°03' W 123°28'1 2.1
2019-May-27 20:00N 38°03' W 123°30'3 6.6
2019-May-27 19:31N 38°03' W 123°34'0 0.6
2019-May-27 19:00N 38°02' W 123°33'1 1.7
2019-May-27 18:30N 38°03' W 123°32'1 2.0
2019-May-27 18:00N 38°03' W 123°31'  

Dump ship's entire track history